sensor_id;sensor_type;location;lat;lon;timestamp;P1;durP1;ratioP1;P2;durP2;ratioP2
11064;SDS011;5585;52.530;7.320;2023-12-20T00:02:02;5.33;;;1.27;;
11064;SDS011;5585;52.530;7.320;2023-12-20T00:04:28;4.17;;;1.20;;
11064;SDS011;5585;52.530;7.320;2023-12-20T00:06:55;6.07;;;1.60;;
11064;SDS011;5585;52.530;7.320;2023-12-20T00:09:21;3.53;;;1.47;;
11064;SDS011;5585;52.530;7.320;2023-12-20T00:11:49;5.80;;;1.60;;
11064;SDS011;5585;52.530;7.320;2023-12-20T00:14:15;4.40;;;1.40;;
11064;SDS011;5585;52.530;7.320;2023-12-20T00:16:42;4.33;;;1.43;;
11064;SDS011;5585;52.530;7.320;2023-12-20T00:19:08;3.67;;;1.37;;
11064;SDS011;5585;52.530;7.320;2023-12-20T00:21:35;4.70;;;1.47;;
11064;SDS011;5585;52.530;7.320;2023-12-20T00:24:01;3.90;;;1.67;;
11064;SDS011;5585;52.530;7.320;2023-12-20T00:26:27;7.73;;;1.87;;
11064;SDS011;5585;52.530;7.320;2023-12-20T00:28:55;3.93;;;1.47;;
11064;SDS011;5585;52.530;7.320;2023-12-20T00:31:22;3.53;;;1.50;;
11064;SDS011;5585;52.530;7.320;2023-12-20T00:33:48;5.03;;;1.70;;
11064;SDS011;5585;52.530;7.320;2023-12-20T00:36:15;3.93;;;1.70;;
11064;SDS011;5585;52.530;7.320;2023-12-20T00:38:41;2.77;;;1.37;;
11064;SDS011;5585;52.530;7.320;2023-12-20T00:41:07;6.33;;;1.70;;
11064;SDS011;5585;52.530;7.320;2023-12-20T00:43:34;4.80;;;1.50;;
11064;SDS011;5585;52.530;7.320;2023-12-20T00:46:02;4.30;;;1.53;;
11064;SDS011;5585;52.530;7.320;2023-12-20T00:48:28;3.00;;;1.50;;
11064;SDS011;5585;52.530;7.320;2023-12-20T00:50:56;3.83;;;1.30;;
11064;SDS011;5585;52.530;7.320;2023-12-20T00:53:22;4.93;;;1.90;;
11064;SDS011;5585;52.530;7.320;2023-12-20T00:55:49;4.43;;;1.67;;
11064;SDS011;5585;52.530;7.320;2023-12-20T00:58:16;6.17;;;1.60;;
11064;SDS011;5585;52.530;7.320;2023-12-20T01:00:42;4.33;;;1.80;;
11064;SDS011;5585;52.530;7.320;2023-12-20T01:03:10;3.93;;;1.40;;
11064;SDS011;5585;52.530;7.320;2023-12-20T01:05:37;4.77;;;1.63;;
11064;SDS011;5585;52.530;7.320;2023-12-20T01:08:04;4.33;;;1.40;;
11064;SDS011;5585;52.530;7.320;2023-12-20T01:10:30;6.87;;;1.70;;
11064;SDS011;5585;52.530;7.320;2023-12-20T01:12:57;4.50;;;1.50;;
11064;SDS011;5585;52.530;7.320;2023-12-20T01:15:23;4.63;;;1.50;;
11064;SDS011;5585;52.530;7.320;2023-12-20T01:17:50;4.07;;;1.47;;
11064;SDS011;5585;52.530;7.320;2023-12-20T01:20:18;6.40;;;1.47;;
11064;SDS011;5585;52.530;7.320;2023-12-20T01:22:45;5.63;;;1.73;;
11064;SDS011;5585;52.530;7.320;2023-12-20T01:25:11;4.30;;;1.70;;
11064;SDS011;5585;52.530;7.320;2023-12-20T01:27:38;3.93;;;1.80;;
11064;SDS011;5585;52.530;7.320;2023-12-20T01:30:04;5.87;;;1.60;;
11064;SDS011;5585;52.530;7.320;2023-12-20T01:32:31;5.97;;;1.97;;
11064;SDS011;5585;52.530;7.320;2023-12-20T01:34:57;4.47;;;1.60;;
11064;SDS011;5585;52.530;7.320;2023-12-20T01:37:25;6.47;;;1.87;;
11064;SDS011;5585;52.530;7.320;2023-12-20T01:39:54;7.33;;;1.93;;
11064;SDS011;5585;52.530;7.320;2023-12-20T01:42:20;7.23;;;1.67;;
11064;SDS011;5585;52.530;7.320;2023-12-20T01:44:47;5.03;;;1.73;;
11064;SDS011;5585;52.530;7.320;2023-12-20T01:47:13;10.47;;;2.40;;
11064;SDS011;5585;52.530;7.320;2023-12-20T01:49:40;5.43;;;1.87;;
11064;SDS011;5585;52.530;7.320;2023-12-20T01:52:06;3.50;;;1.63;;
11064;SDS011;5585;52.530;7.320;2023-12-20T01:54:35;5.70;;;1.60;;
11064;SDS011;5585;52.530;7.320;2023-12-20T01:57:02;6.60;;;1.93;;
11064;SDS011;5585;52.530;7.320;2023-12-20T01:59:29;3.60;;;1.40;;
11064;SDS011;5585;52.530;7.320;2023-12-20T02:01:56;4.43;;;1.60;;
11064;SDS011;5585;52.530;7.320;2023-12-20T02:04:22;5.03;;;1.77;;
11064;SDS011;5585;52.530;7.320;2023-12-20T02:06:49;7.03;;;1.60;;
11064;SDS011;5585;52.530;7.320;2023-12-20T02:09:18;4.13;;;1.90;;
11064;SDS011;5585;52.530;7.320;2023-12-20T02:11:46;4.77;;;1.50;;
11064;SDS011;5585;52.530;7.320;2023-12-20T02:14:12;5.53;;;1.30;;
11064;SDS011;5585;52.530;7.320;2023-12-20T02:16:39;5.57;;;1.40;;
11064;SDS011;5585;52.530;7.320;2023-12-20T02:19:05;7.30;;;1.80;;
11064;SDS011;5585;52.530;7.320;2023-12-20T02:21:35;6.40;;;1.73;;
11064;SDS011;5585;52.530;7.320;2023-12-20T02:24:01;4.43;;;1.40;;
11064;SDS011;5585;52.530;7.320;2023-12-20T02:26:28;7.20;;;1.90;;
11064;SDS011;5585;52.530;7.320;2023-12-20T02:28:54;6.63;;;1.50;;
11064;SDS011;5585;52.530;7.320;2023-12-20T02:31:21;4.43;;;1.33;;
11064;SDS011;5585;52.530;7.320;2023-12-20T02:33:48;4.40;;;1.87;;
11064;SDS011;5585;52.530;7.320;2023-12-20T02:36:14;5.93;;;2.00;;
11064;SDS011;5585;52.530;7.320;2023-12-20T02:38:42;5.13;;;1.90;;
11064;SDS011;5585;52.530;7.320;2023-12-20T02:41:09;6.83;;;1.80;;
11064;SDS011;5585;52.530;7.320;2023-12-20T02:43:35;7.90;;;1.47;;
11064;SDS011;5585;52.530;7.320;2023-12-20T02:46:01;9.27;;;2.07;;
11064;SDS011;5585;52.530;7.320;2023-12-20T02:48:28;9.53;;;2.00;;
11064;SDS011;5585;52.530;7.320;2023-12-20T02:50:54;7.60;;;1.93;;
11064;SDS011;5585;52.530;7.320;2023-12-20T02:53:21;6.60;;;1.60;;
11064;SDS011;5585;52.530;7.320;2023-12-20T02:55:49;7.43;;;1.93;;
11064;SDS011;5585;52.530;7.320;2023-12-20T02:58:15;9.93;;;2.10;;
11064;SDS011;5585;52.530;7.320;2023-12-20T03:00:42;5.97;;;1.63;;
11064;SDS011;5585;52.530;7.320;2023-12-20T03:03:09;9.60;;;2.47;;
11064;SDS011;5585;52.530;7.320;2023-12-20T03:05:35;5.43;;;1.43;;
11064;SDS011;5585;52.530;7.320;2023-12-20T03:08:02;7.97;;;1.97;;
11064;SDS011;5585;52.530;7.320;2023-12-20T03:10:28;7.70;;;2.30;;
11064;SDS011;5585;52.530;7.320;2023-12-20T03:12:56;9.33;;;2.40;;
11064;SDS011;5585;52.530;7.320;2023-12-20T03:15:22;7.33;;;2.20;;
11064;SDS011;5585;52.530;7.320;2023-12-20T03:17:49;6.37;;;2.00;;
11064;SDS011;5585;52.530;7.320;2023-12-20T03:20:15;6.53;;;1.97;;
11064;SDS011;5585;52.530;7.320;2023-12-20T03:22:42;6.30;;;2.07;;
11064;SDS011;5585;52.530;7.320;2023-12-20T03:25:08;7.40;;;2.37;;
11064;SDS011;5585;52.530;7.320;2023-12-20T03:27:36;10.93;;;2.57;;
11064;SDS011;5585;52.530;7.320;2023-12-20T03:30:05;5.60;;;2.03;;
11064;SDS011;5585;52.530;7.320;2023-12-20T03:32:31;9.33;;;2.60;;
11064;SDS011;5585;52.530;7.320;2023-12-20T03:34:58;6.20;;;2.30;;
11064;SDS011;5585;52.530;7.320;2023-12-20T03:37:24;4.57;;;1.80;;
11064;SDS011;5585;52.530;7.320;2023-12-20T03:39:51;6.77;;;2.37;;
11064;SDS011;5585;52.530;7.320;2023-12-20T03:42:17;7.77;;;2.50;;
11064;SDS011;5585;52.530;7.320;2023-12-20T03:44:43;12.33;;;3.27;;
11064;SDS011;5585;52.530;7.320;2023-12-20T03:47:11;7.53;;;2.60;;
11064;SDS011;5585;52.530;7.320;2023-12-20T03:49:38;7.13;;;2.30;;
11064;SDS011;5585;52.530;7.320;2023-12-20T03:52:04;7.67;;;2.50;;
11064;SDS011;5585;52.530;7.320;2023-12-20T03:54:31;7.60;;;2.50;;
11064;SDS011;5585;52.530;7.320;2023-12-20T03:56:57;9.40;;;2.87;;
11064;SDS011;5585;52.530;7.320;2023-12-20T03:59:24;8.53;;;2.77;;
11064;SDS011;5585;52.530;7.320;2023-12-20T04:01:50;10.90;;;2.30;;
11064;SDS011;5585;52.530;7.320;2023-12-20T04:04:18;13.07;;;3.33;;
11064;SDS011;5585;52.530;7.320;2023-12-20T04:06:45;10.10;;;2.57;;
11064;SDS011;5585;52.530;7.320;2023-12-20T04:09:11;8.27;;;3.07;;
11064;SDS011;5585;52.530;7.320;2023-12-20T04:11:38;9.50;;;2.97;;
11064;SDS011;5585;52.530;7.320;2023-12-20T04:14:04;9.60;;;2.57;;
11064;SDS011;5585;52.530;7.320;2023-12-20T04:16:32;8.13;;;2.50;;
11064;SDS011;5585;52.530;7.320;2023-12-20T04:18:58;11.73;;;2.80;;
11064;SDS011;5585;52.530;7.320;2023-12-20T04:21:26;10.00;;;2.90;;
11064;SDS011;5585;52.530;7.320;2023-12-20T04:23:53;9.10;;;2.70;;
11064;SDS011;5585;52.530;7.320;2023-12-20T04:26:19;10.20;;;3.07;;
11064;SDS011;5585;52.530;7.320;2023-12-20T04:28:46;10.23;;;2.90;;
11064;SDS011;5585;52.530;7.320;2023-12-20T04:31:12;8.73;;;2.70;;
11064;SDS011;5585;52.530;7.320;2023-12-20T04:33:38;12.47;;;3.50;;
11064;SDS011;5585;52.530;7.320;2023-12-20T04:36:05;9.77;;;2.77;;
11064;SDS011;5585;52.530;7.320;2023-12-20T04:38:33;9.77;;;2.83;;
11064;SDS011;5585;52.530;7.320;2023-12-20T04:40:59;11.13;;;3.23;;
11064;SDS011;5585;52.530;7.320;2023-12-20T04:43:26;14.07;;;2.87;;
11064;SDS011;5585;52.530;7.320;2023-12-20T04:45:53;14.20;;;3.07;;
11064;SDS011;5585;52.530;7.320;2023-12-20T04:48:19;8.57;;;2.50;;
11064;SDS011;5585;52.530;7.320;2023-12-20T04:50:46;11.63;;;2.87;;
11064;SDS011;5585;52.530;7.320;2023-12-20T04:53:12;10.73;;;3.17;;
11064;SDS011;5585;52.530;7.320;2023-12-20T04:55:40;9.97;;;2.83;;
11064;SDS011;5585;52.530;7.320;2023-12-20T04:58:06;9.27;;;2.50;;
11064;SDS011;5585;52.530;7.320;2023-12-20T05:00:33;9.77;;;2.73;;
11064;SDS011;5585;52.530;7.320;2023-12-20T05:02:59;8.80;;;2.80;;
11064;SDS011;5585;52.530;7.320;2023-12-20T05:05:27;12.50;;;3.03;;
11064;SDS011;5585;52.530;7.320;2023-12-20T05:07:53;10.97;;;2.60;;
11064;SDS011;5585;52.530;7.320;2023-12-20T05:10:20;11.43;;;2.90;;
11064;SDS011;5585;52.530;7.320;2023-12-20T05:12:47;10.23;;;2.70;;
11064;SDS011;5585;52.530;7.320;2023-12-20T05:15:14;11.70;;;3.47;;
11064;SDS011;5585;52.530;7.320;2023-12-20T05:17:40;14.10;;;3.37;;
11064;SDS011;5585;52.530;7.320;2023-12-20T05:20:07;12.97;;;3.37;;
11064;SDS011;5585;52.530;7.320;2023-12-20T05:22:34;8.53;;;3.23;;
11064;SDS011;5585;52.530;7.320;2023-12-20T05:25:00;10.13;;;2.93;;
11064;SDS011;5585;52.530;7.320;2023-12-20T05:27:27;14.77;;;2.90;;
11064;SDS011;5585;52.530;7.320;2023-12-20T05:29:55;10.93;;;2.87;;
11064;SDS011;5585;52.530;7.320;2023-12-20T05:32:22;12.20;;;2.60;;
11064;SDS011;5585;52.530;7.320;2023-12-20T05:34:49;12.50;;;3.10;;
11064;SDS011;5585;52.530;7.320;2023-12-20T05:37:15;14.93;;;2.67;;
11064;SDS011;5585;52.530;7.320;2023-12-20T05:39:42;13.93;;;3.13;;
11064;SDS011;5585;52.530;7.320;2023-12-20T05:42:08;9.77;;;2.93;;
11064;SDS011;5585;52.530;7.320;2023-12-20T05:44:35;15.10;;;3.27;;
11064;SDS011;5585;52.530;7.320;2023-12-20T05:47:03;13.07;;;3.13;;
11064;SDS011;5585;52.530;7.320;2023-12-20T05:49:30;11.77;;;3.67;;
11064;SDS011;5585;52.530;7.320;2023-12-20T05:51:56;13.07;;;3.17;;
11064;SDS011;5585;52.530;7.320;2023-12-20T05:54:23;13.17;;;3.20;;
11064;SDS011;5585;52.530;7.320;2023-12-20T05:56:49;11.97;;;2.77;;
11064;SDS011;5585;52.530;7.320;2023-12-20T05:59:16;12.43;;;3.37;;
11064;SDS011;5585;52.530;7.320;2023-12-20T06:01:43;15.73;;;3.23;;
11064;SDS011;5585;52.530;7.320;2023-12-20T06:04:10;12.90;;;3.13;;
11064;SDS011;5585;52.530;7.320;2023-12-20T06:06:40;12.07;;;2.83;;
11064;SDS011;5585;52.530;7.320;2023-12-20T06:09:06;12.40;;;3.67;;
11064;SDS011;5585;52.530;7.320;2023-12-20T06:11:33;11.77;;;2.53;;
11064;SDS011;5585;52.530;7.320;2023-12-20T06:13:59;12.10;;;3.20;;
11064;SDS011;5585;52.530;7.320;2023-12-20T06:16:26;10.40;;;2.80;;
11064;SDS011;5585;52.530;7.320;2023-12-20T06:18:52;8.87;;;2.67;;
11064;SDS011;5585;52.530;7.320;2023-12-20T06:21:20;9.53;;;2.83;;
11064;SDS011;5585;52.530;7.320;2023-12-20T06:23:46;10.37;;;3.13;;
11064;SDS011;5585;52.530;7.320;2023-12-20T06:26:13;12.90;;;3.27;;
11064;SDS011;5585;52.530;7.320;2023-12-20T06:28:39;13.20;;;3.30;;
11064;SDS011;5585;52.530;7.320;2023-12-20T06:31:06;11.63;;;2.80;;
11064;SDS011;5585;52.530;7.320;2023-12-20T06:33:32;14.57;;;3.07;;
11064;SDS011;5585;52.530;7.320;2023-12-20T06:35:58;15.17;;;3.47;;
11064;SDS011;5585;52.530;7.320;2023-12-20T06:38:26;16.70;;;3.50;;
11064;SDS011;5585;52.530;7.320;2023-12-20T06:40:53;10.10;;;2.93;;
11064;SDS011;5585;52.530;7.320;2023-12-20T06:43:20;13.07;;;3.13;;
11064;SDS011;5585;52.530;7.320;2023-12-20T06:45:46;13.03;;;3.53;;
11064;SDS011;5585;52.530;7.320;2023-12-20T06:48:13;9.77;;;2.57;;
11064;SDS011;5585;52.530;7.320;2023-12-20T06:50:39;11.00;;;3.23;;
11064;SDS011;5585;52.530;7.320;2023-12-20T06:53:06;11.10;;;2.50;;
11064;SDS011;5585;52.530;7.320;2023-12-20T06:55:34;15.40;;;3.73;;
11064;SDS011;5585;52.530;7.320;2023-12-20T06:58:01;10.20;;;2.77;;
11064;SDS011;5585;52.530;7.320;2023-12-20T07:00:27;12.37;;;3.20;;
11064;SDS011;5585;52.530;7.320;2023-12-20T07:02:54;10.30;;;2.80;;
11064;SDS011;5585;52.530;7.320;2023-12-20T07:05:21;9.43;;;3.10;;
11064;SDS011;5585;52.530;7.320;2023-12-20T07:07:47;9.97;;;3.20;;
11064;SDS011;5585;52.530;7.320;2023-12-20T07:10:14;12.70;;;2.83;;
11064;SDS011;5585;52.530;7.320;2023-12-20T07:12:42;11.90;;;2.90;;
11064;SDS011;5585;52.530;7.320;2023-12-20T07:15:09;10.37;;;3.17;;
11064;SDS011;5585;52.530;7.320;2023-12-20T07:17:35;13.63;;;3.57;;
11064;SDS011;5585;52.530;7.320;2023-12-20T07:20:02;13.13;;;3.33;;
11064;SDS011;5585;52.530;7.320;2023-12-20T07:22:29;9.77;;;2.77;;
11064;SDS011;5585;52.530;7.320;2023-12-20T07:24:56;13.77;;;3.07;;
11064;SDS011;5585;52.530;7.320;2023-12-20T07:27:23;9.93;;;2.63;;
11064;SDS011;5585;52.530;7.320;2023-12-20T07:29:50;7.07;;;2.93;;
11064;SDS011;5585;52.530;7.320;2023-12-20T07:32:17;10.87;;;2.70;;
11064;SDS011;5585;52.530;7.320;2023-12-20T07:34:43;10.77;;;2.60;;
11064;SDS011;5585;52.530;7.320;2023-12-20T07:37:10;7.87;;;3.17;;
11064;SDS011;5585;52.530;7.320;2023-12-20T07:39:37;17.37;;;3.87;;
11064;SDS011;5585;52.530;7.320;2023-12-20T07:42:03;12.57;;;3.40;;
11064;SDS011;5585;52.530;7.320;2023-12-20T07:44:30;9.97;;;3.20;;
11064;SDS011;5585;52.530;7.320;2023-12-20T07:46:58;12.83;;;2.83;;
11064;SDS011;5585;52.530;7.320;2023-12-20T07:49:24;13.23;;;3.63;;
11064;SDS011;5585;52.530;7.320;2023-12-20T07:51:51;14.00;;;3.23;;
11064;SDS011;5585;52.530;7.320;2023-12-20T07:54:17;10.47;;;2.77;;
11064;SDS011;5585;52.530;7.320;2023-12-20T07:56:43;9.77;;;2.63;;
11064;SDS011;5585;52.530;7.320;2023-12-20T07:59:10;10.03;;;2.80;;
11064;SDS011;5585;52.530;7.320;2023-12-20T08:01:36;9.97;;;3.13;;
11064;SDS011;5585;52.530;7.320;2023-12-20T08:04:04;14.83;;;3.60;;
11064;SDS011;5585;52.530;7.320;2023-12-20T08:06:31;13.87;;;4.43;;
11064;SDS011;5585;52.530;7.320;2023-12-20T08:08:57;16.43;;;3.90;;
11064;SDS011;5585;52.530;7.320;2023-12-20T08:11:23;12.27;;;3.00;;
11064;SDS011;5585;52.530;7.320;2023-12-20T08:13:50;10.17;;;3.40;;
11064;SDS011;5585;52.530;7.320;2023-12-20T08:16:16;14.40;;;3.63;;
11064;SDS011;5585;52.530;7.320;2023-12-20T08:18:43;10.80;;;3.00;;
11064;SDS011;5585;52.530;7.320;2023-12-20T08:21:11;10.07;;;3.20;;
11064;SDS011;5585;52.530;7.320;2023-12-20T08:23:37;13.50;;;3.40;;
11064;SDS011;5585;52.530;7.320;2023-12-20T08:26:04;10.77;;;3.20;;
11064;SDS011;5585;52.530;7.320;2023-12-20T08:28:31;16.80;;;3.40;;
11064;SDS011;5585;52.530;7.320;2023-12-20T08:30:57;11.60;;;3.23;;
11064;SDS011;5585;52.530;7.320;2023-12-20T08:33:24;14.47;;;3.00;;
11064;SDS011;5585;52.530;7.320;2023-12-20T08:35:50;13.80;;;3.37;;
11064;SDS011;5585;52.530;7.320;2023-12-20T08:38:18;12.00;;;3.10;;
11064;SDS011;5585;52.530;7.320;2023-12-20T08:40:44;13.93;;;3.07;;
11064;SDS011;5585;52.530;7.320;2023-12-20T08:43:11;10.00;;;2.80;;
11064;SDS011;5585;52.530;7.320;2023-12-20T08:45:38;13.23;;;3.10;;
11064;SDS011;5585;52.530;7.320;2023-12-20T08:48:05;11.37;;;2.90;;
11064;SDS011;5585;52.530;7.320;2023-12-20T08:50:32;10.67;;;3.03;;
11064;SDS011;5585;52.530;7.320;2023-12-20T08:52:58;10.70;;;3.03;;
11064;SDS011;5585;52.530;7.320;2023-12-20T08:55:26;8.27;;;2.83;;
11064;SDS011;5585;52.530;7.320;2023-12-20T08:57:54;12.30;;;2.83;;
11064;SDS011;5585;52.530;7.320;2023-12-20T09:00:20;12.47;;;2.90;;
11064;SDS011;5585;52.530;7.320;2023-12-20T09:02:49;13.50;;;2.93;;
11064;SDS011;5585;52.530;7.320;2023-12-20T09:05:15;12.83;;;3.10;;
11064;SDS011;5585;52.530;7.320;2023-12-20T09:07:42;9.00;;;2.63;;
11064;SDS011;5585;52.530;7.320;2023-12-20T09:10:08;14.80;;;4.07;;
11064;SDS011;5585;52.530;7.320;2023-12-20T09:12:36;12.97;;;2.70;;
11064;SDS011;5585;52.530;7.320;2023-12-20T09:15:05;16.57;;;3.67;;
11064;SDS011;5585;52.530;7.320;2023-12-20T09:17:31;13.07;;;3.60;;
11064;SDS011;5585;52.530;7.320;2023-12-20T09:19:58;9.50;;;2.70;;
11064;SDS011;5585;52.530;7.320;2023-12-20T09:22:25;13.97;;;3.40;;
11064;SDS011;5585;52.530;7.320;2023-12-20T09:24:50;17.80;;;3.70;;
11064;SDS011;5585;52.530;7.320;2023-12-20T09:27:17;17.77;;;3.90;;
11064;SDS011;5585;52.530;7.320;2023-12-20T09:29:44;12.20;;;3.90;;
11064;SDS011;5585;52.530;7.320;2023-12-20T09:32:13;14.37;;;3.97;;
11064;SDS011;5585;52.530;7.320;2023-12-20T09:34:40;12.83;;;3.27;;
11064;SDS011;5585;52.530;7.320;2023-12-20T09:37:06;13.37;;;3.13;;
11064;SDS011;5585;52.530;7.320;2023-12-20T09:39:33;11.60;;;3.20;;
11064;SDS011;5585;52.530;7.320;2023-12-20T09:42:00;15.97;;;3.20;;
11064;SDS011;5585;52.530;7.320;2023-12-20T09:44:27;16.73;;;4.10;;
11064;SDS011;5585;52.530;7.320;2023-12-20T09:46:55;21.10;;;3.53;;
11064;SDS011;5585;52.530;7.320;2023-12-20T09:49:22;13.67;;;3.40;;
11064;SDS011;5585;52.530;7.320;2023-12-20T09:51:49;18.30;;;3.73;;
11064;SDS011;5585;52.530;7.320;2023-12-20T09:54:16;13.43;;;3.00;;
11064;SDS011;5585;52.530;7.320;2023-12-20T09:56:43;14.90;;;3.43;;
11064;SDS011;5585;52.530;7.320;2023-12-20T09:59:10;12.63;;;3.23;;
11064;SDS011;5585;52.530;7.320;2023-12-20T10:01:36;15.27;;;3.80;;
11064;SDS011;5585;52.530;7.320;2023-12-20T10:04:06;12.70;;;3.73;;
11064;SDS011;5585;52.530;7.320;2023-12-20T10:06:34;15.10;;;3.40;;
11064;SDS011;5585;52.530;7.320;2023-12-20T10:09:00;19.27;;;4.90;;
11064;SDS011;5585;52.530;7.320;2023-12-20T10:11:27;10.80;;;3.63;;
11064;SDS011;5585;52.530;7.320;2023-12-20T10:13:58;13.03;;;3.23;;
11064;SDS011;5585;52.530;7.320;2023-12-20T10:16:25;11.47;;;3.13;;
11064;SDS011;5585;52.530;7.320;2023-12-20T10:18:52;14.90;;;3.50;;
11064;SDS011;5585;52.530;7.320;2023-12-20T10:21:20;13.17;;;3.60;;
11064;SDS011;5585;52.530;7.320;2023-12-20T10:23:47;14.60;;;3.60;;
11064;SDS011;5585;52.530;7.320;2023-12-20T10:26:18;12.63;;;3.50;;
11064;SDS011;5585;52.530;7.320;2023-12-20T10:28:45;12.40;;;3.90;;
11064;SDS011;5585;52.530;7.320;2023-12-20T10:31:15;15.40;;;3.37;;
11064;SDS011;5585;52.530;7.320;2023-12-20T10:33:51;14.87;;;3.40;;
11064;SDS011;5585;52.530;7.320;2023-12-20T10:36:19;14.80;;;3.80;;
11064;SDS011;5585;52.530;7.320;2023-12-20T10:38:46;16.10;;;3.57;;
11064;SDS011;5585;52.530;7.320;2023-12-20T10:41:15;10.07;;;3.07;;
11064;SDS011;5585;52.530;7.320;2023-12-20T10:43:44;12.97;;;3.10;;
11064;SDS011;5585;52.530;7.320;2023-12-20T10:46:11;17.73;;;3.20;;
11064;SDS011;5585;52.530;7.320;2023-12-20T10:48:38;13.73;;;3.53;;
11064;SDS011;5585;52.530;7.320;2023-12-20T10:51:05;16.50;;;4.37;;
11064;SDS011;5585;52.530;7.320;2023-12-20T10:53:33;7.00;;;1.83;;
11064;SDS011;5585;52.530;7.320;2023-12-20T10:56:02;5.97;;;1.33;;
11064;SDS011;5585;52.530;7.320;2023-12-20T10:58:29;4.57;;;1.20;;
11064;SDS011;5585;52.530;7.320;2023-12-20T11:00:57;5.33;;;1.10;;
11064;SDS011;5585;52.530;7.320;2023-12-20T11:03:25;3.17;;;1.07;;
11064;SDS011;5585;52.530;7.320;2023-12-20T11:05:55;3.30;;;1.10;;
11064;SDS011;5585;52.530;7.320;2023-12-20T11:08:26;5.37;;;1.43;;
11064;SDS011;5585;52.530;7.320;2023-12-20T11:10:58;4.73;;;1.20;;
11064;SDS011;5585;52.530;7.320;2023-12-20T11:13:28;5.77;;;1.40;;
11064;SDS011;5585;52.530;7.320;2023-12-20T11:15:56;5.27;;;1.37;;
11064;SDS011;5585;52.530;7.320;2023-12-20T11:18:28;7.87;;;1.70;;
11064;SDS011;5585;52.530;7.320;2023-12-20T11:20:54;6.43;;;1.30;;
11064;SDS011;5585;52.530;7.320;2023-12-20T11:23:21;7.13;;;1.27;;
11064;SDS011;5585;52.530;7.320;2023-12-20T11:25:48;7.97;;;1.40;;
11064;SDS011;5585;52.530;7.320;2023-12-20T11:28:16;4.87;;;1.23;;
11064;SDS011;5585;52.530;7.320;2023-12-20T11:30:46;4.47;;;1.10;;
11064;SDS011;5585;52.530;7.320;2023-12-20T11:33:13;4.57;;;1.23;;
11064;SDS011;5585;52.530;7.320;2023-12-20T11:35:40;8.03;;;1.67;;
11064;SDS011;5585;52.530;7.320;2023-12-20T11:38:07;5.83;;;1.50;;
11064;SDS011;5585;52.530;7.320;2023-12-20T11:40:34;6.60;;;1.60;;
11064;SDS011;5585;52.530;7.320;2023-12-20T11:43:01;6.50;;;1.30;;
11064;SDS011;5585;52.530;7.320;2023-12-20T11:45:29;6.40;;;1.43;;
11064;SDS011;5585;52.530;7.320;2023-12-20T11:47:56;4.17;;;1.23;;
11064;SDS011;5585;52.530;7.320;2023-12-20T11:50:23;4.87;;;1.20;;
11064;SDS011;5585;52.530;7.320;2023-12-20T11:52:51;5.73;;;1.67;;
11064;SDS011;5585;52.530;7.320;2023-12-20T11:55:18;5.77;;;1.63;;
11064;SDS011;5585;52.530;7.320;2023-12-20T11:57:45;4.90;;;1.23;;
11064;SDS011;5585;52.530;7.320;2023-12-20T12:00:12;5.80;;;1.23;;
11064;SDS011;5585;52.530;7.320;2023-12-20T12:02:40;5.13;;;1.60;;
11064;SDS011;5585;52.530;7.320;2023-12-20T12:05:07;5.33;;;1.13;;
11064;SDS011;5585;52.530;7.320;2023-12-20T12:07:34;5.80;;;1.77;;
11064;SDS011;5585;52.530;7.320;2023-12-20T12:10:01;3.83;;;1.33;;
11064;SDS011;5585;52.530;7.320;2023-12-20T12:12:28;6.43;;;1.40;;
11064;SDS011;5585;52.530;7.320;2023-12-20T12:14:56;5.80;;;1.40;;
11064;SDS011;5585;52.530;7.320;2023-12-20T12:17:23;4.63;;;1.57;;
11064;SDS011;5585;52.530;7.320;2023-12-20T12:19:51;5.57;;;1.40;;
11064;SDS011;5585;52.530;7.320;2023-12-20T12:22:27;5.17;;;1.30;;
11064;SDS011;5585;52.530;7.320;2023-12-20T12:24:54;4.90;;;1.60;;
11064;SDS011;5585;52.530;7.320;2023-12-20T12:27:20;4.63;;;0.93;;
11064;SDS011;5585;52.530;7.320;2023-12-20T12:29:59;4.33;;;1.30;;
11064;SDS011;5585;52.530;7.320;2023-12-20T12:32:26;3.00;;;0.93;;
11064;SDS011;5585;52.530;7.320;2023-12-20T12:34:54;8.97;;;2.00;;
11064;SDS011;5585;52.530;7.320;2023-12-20T12:37:20;5.87;;;1.10;;
11064;SDS011;5585;52.530;7.320;2023-12-20T12:39:49;6.10;;;1.33;;
11064;SDS011;5585;52.530;7.320;2023-12-20T12:42:15;5.80;;;1.20;;
11064;SDS011;5585;52.530;7.320;2023-12-20T12:44:42;4.13;;;1.20;;
11064;SDS011;5585;52.530;7.320;2023-12-20T12:47:08;12.47;;;1.93;;
11064;SDS011;5585;52.530;7.320;2023-12-20T12:49:35;5.13;;;1.17;;
11064;SDS011;5585;52.530;7.320;2023-12-20T12:52:03;5.57;;;1.53;;
11064;SDS011;5585;52.530;7.320;2023-12-20T12:54:29;4.30;;;1.10;;
11064;SDS011;5585;52.530;7.320;2023-12-20T12:56:56;5.77;;;1.37;;
11064;SDS011;5585;52.530;7.320;2023-12-20T12:59:23;5.90;;;1.47;;
11064;SDS011;5585;52.530;7.320;2023-12-20T13:01:49;3.83;;;1.20;;
11064;SDS011;5585;52.530;7.320;2023-12-20T13:04:16;3.27;;;1.30;;
11064;SDS011;5585;52.530;7.320;2023-12-20T13:06:42;4.57;;;1.50;;
11064;SDS011;5585;52.530;7.320;2023-12-20T13:09:10;4.37;;;1.53;;
11064;SDS011;5585;52.530;7.320;2023-12-20T13:11:37;3.97;;;1.47;;
11064;SDS011;5585;52.530;7.320;2023-12-20T13:14:03;5.00;;;1.20;;
11064;SDS011;5585;52.530;7.320;2023-12-20T13:16:30;4.03;;;1.17;;
11064;SDS011;5585;52.530;7.320;2023-12-20T13:18:56;8.47;;;1.73;;
11064;SDS011;5585;52.530;7.320;2023-12-20T13:21:25;5.07;;;1.20;;
11064;SDS011;5585;52.530;7.320;2023-12-20T13:23:51;4.73;;;1.10;;
11064;SDS011;5585;52.530;7.320;2023-12-20T13:26:20;5.30;;;1.30;;
11064;SDS011;5585;52.530;7.320;2023-12-20T13:28:46;6.00;;;1.10;;
11064;SDS011;5585;52.530;7.320;2023-12-20T13:31:13;3.67;;;0.83;;
11064;SDS011;5585;52.530;7.320;2023-12-20T13:33:39;5.80;;;1.20;;
11064;SDS011;5585;52.530;7.320;2023-12-20T13:36:06;5.50;;;1.53;;
11064;SDS011;5585;52.530;7.320;2023-12-20T13:38:33;4.33;;;1.77;;
11064;SDS011;5585;52.530;7.320;2023-12-20T13:41:00;7.27;;;1.83;;
11064;SDS011;5585;52.530;7.320;2023-12-20T13:43:27;6.53;;;1.80;;
11064;SDS011;5585;52.530;7.320;2023-12-20T13:45:54;7.07;;;1.70;;
11064;SDS011;5585;52.530;7.320;2023-12-20T13:48:21;7.40;;;1.80;;
11064;SDS011;5585;52.530;7.320;2023-12-20T13:50:48;9.30;;;2.17;;
11064;SDS011;5585;52.530;7.320;2023-12-20T13:53:14;4.37;;;1.13;;
11064;SDS011;5585;52.530;7.320;2023-12-20T13:55:41;4.37;;;1.37;;
11064;SDS011;5585;52.530;7.320;2023-12-20T13:58:07;4.30;;;1.40;;
11064;SDS011;5585;52.530;7.320;2023-12-20T14:00:36;3.80;;;1.20;;
11064;SDS011;5585;52.530;7.320;2023-12-20T14:03:03;6.27;;;1.00;;
11064;SDS011;5585;52.530;7.320;2023-12-20T14:05:29;5.17;;;1.27;;
11064;SDS011;5585;52.530;7.320;2023-12-20T14:07:56;7.70;;;1.57;;
11064;SDS011;5585;52.530;7.320;2023-12-20T14:10:23;4.23;;;1.00;;
11064;SDS011;5585;52.530;7.320;2023-12-20T14:12:51;4.73;;;1.07;;
11064;SDS011;5585;52.530;7.320;2023-12-20T14:15:18;4.80;;;1.33;;
11064;SDS011;5585;52.530;7.320;2023-12-20T14:17:45;2.10;;;1.00;;
11064;SDS011;5585;52.530;7.320;2023-12-20T14:20:12;4.37;;;1.20;;
11064;SDS011;5585;52.530;7.320;2023-12-20T14:22:38;6.23;;;1.50;;
11064;SDS011;5585;52.530;7.320;2023-12-20T14:25:10;3.77;;;1.20;;
11064;SDS011;5585;52.530;7.320;2023-12-20T14:27:37;4.03;;;1.30;;
11064;SDS011;5585;52.530;7.320;2023-12-20T14:30:04;4.13;;;1.27;;
11064;SDS011;5585;52.530;7.320;2023-12-20T14:32:30;6.27;;;1.40;;
11064;SDS011;5585;52.530;7.320;2023-12-20T14:34:58;4.37;;;1.27;;
11064;SDS011;5585;52.530;7.320;2023-12-20T14:37:25;4.93;;;1.50;;
11064;SDS011;5585;52.530;7.320;2023-12-20T14:39:51;5.30;;;1.30;;
11064;SDS011;5585;52.530;7.320;2023-12-20T14:42:17;5.60;;;1.43;;
11064;SDS011;5585;52.530;7.320;2023-12-20T14:44:43;4.20;;;1.57;;
11064;SDS011;5585;52.530;7.320;2023-12-20T14:47:10;4.47;;;1.20;;
11064;SDS011;5585;52.530;7.320;2023-12-20T14:49:39;3.47;;;1.37;;
11064;SDS011;5585;52.530;7.320;2023-12-20T14:52:07;4.20;;;1.50;;
11064;SDS011;5585;52.530;7.320;2023-12-20T14:54:36;4.77;;;1.43;;